Time;durP1;ratioP1;P1;durP2;ratioP2;P2;SDS_P1;SDS_P2;PMS_P1;PMS_P2;Temp;Humidity;BMP_temperature;BMP_pressure;BME280_temperature;BME280_humidity;BME280_pressure;Samples;Min_cycle;Max_cycle;Signal;HPM_P1;HPM_P2
2022/08/11 00:01:27;;;;;;;5.60;2.80;;;19.60;99.90;;;;;;5072045;28;20482;-70
2022/08/11 00:03:58;;;;;;;5.78;2.70;;;19.60;99.90;;;;;;5073181;28;20036;-70
2022/08/11 00:06:37;;;;;;;4.47;2.50;;;19.50;99.90;;;;;;5071627;28;20041;-70
2022/08/11 00:09:07;;;;;;;5.35;2.60;;;19.50;99.90;;;;;;5072010;28;20045;-70
2022/08/11 00:11:36;;;;;;;5.68;2.78;;;19.50;99.90;;;;;;5071656;28;20097;-70
2022/08/11 00:14:03;;;;;;;8.35;2.80;;;19.50;99.90;;;;;;5071922;28;20083;-70
2022/08/11 00:16:29;;;;;;;7.85;3.00;;;19.40;99.90;;;;;;5071519;28;20413;-70
2022/08/11 00:18:57;;;;;;;5.25;2.78;;;19.40;99.90;;;;;;5071603;28;20036;-70
2022/08/11 00:21:26;;;;;;;7.18;2.72;;;19.40;99.90;;;;;;5055158;28;20067;-70
2022/08/11 00:23:59;;;;;;;4.55;2.83;;;19.30;99.90;;;;;;5054718;28;20047;-70
2022/08/11 00:26:27;;;;;;;5.45;3.00;;;19.30;99.90;;;;;;5071582;28;20053;-70
2022/08/11 00:28:53;;;;;;;3.42;2.80;;;19.30;99.90;;;;;;5071464;28;20424;-70
2022/08/11 00:31:28;;;;;;;7.90;2.90;;;19.30;99.90;;;;;;5071480;28;20592;-70
2022/08/11 00:33:55;;;;;;;5.95;2.78;;;19.30;99.90;;;;;;5054989;28;20040;-70
2022/08/11 00:36:26;;;;;;;5.15;3.25;;;19.20;99.90;;;;;;5071360;28;20151;-70
2022/08/11 00:38:54;;;;;;;5.25;3.20;;;19.20;99.90;;;;;;5071456;28;20047;-70
2022/08/11 00:42:05;;;;;;;7.72;3.30;;;19.10;99.90;;;;;;5071416;28;20513;-70
2022/08/11 00:44:57;;;;;;;5.10;3.28;;;19.10;99.90;;;;;;5034147;28;20520;-70
2022/08/11 00:47:32;;;;;;;8.32;3.60;;;19.10;99.90;;;;;;5033705;28;20044;-70
2022/08/11 00:50:21;;;;;;;5.57;3.10;;;19.10;99.90;;;;;;5033798;28;20128;-70
2022/08/11 00:53:02;;;;;;;7.93;3.28;;;19.00;99.90;;;;;;5021051;28;20055;-70
2022/08/11 00:55:55;;;;;;;4.43;3.22;;;19.00;99.90;;;;;;5020945;28;20056;-70
2022/08/11 00:58:39;;;;;;;;;;;19.00;99.90;;;;;;5038111;28;20051;-70
2022/08/11 01:01:08;;;;;;;6.38;3.30;;;18.80;99.90;;;;;;5037576;28;19982;-70
2022/08/11 01:04:17;;;;;;;7.80;3.58;;;18.80;99.90;;;;;;5037578;28;20452;-70
2022/08/11 01:06:49;;;;;;;4.10;3.40;;;18.80;99.90;;;;;;5037130;28;20044;-70
2022/08/11 01:09:40;;;;;;;6.10;3.53;;;18.80;99.90;;;;;;5037685;28;20111;-70
2022/08/11 01:12:12;;;;;;;9.15;3.53;;;18.80;99.90;;;;;;5037200;28;20044;-70
2022/08/11 01:15:13;;;;;;;6.78;3.83;;;18.70;99.90;;;;;;5043466;28;20154;-70
2022/08/11 01:18:07;;;;;;;5.28;3.58;;;18.70;99.90;;;;;;5057888;28;20039;-70
2022/08/11 01:21:03;;;;;;;6.32;3.65;;;18.70;99.90;;;;;;5057865;28;20066;-70
2022/08/11 01:24:02;;;;;;;9.05;4.50;;;18.70;99.90;;;;;;5074436;28;20036;-70
2022/08/11 01:27:05;;;;;;;6.72;3.95;;;18.70;99.90;;;;;;5057673;28;20097;-70
2022/08/11 01:29:38;;;;;;;;;;;18.60;99.90;;;;;;5075055;28;20477;-70
2022/08/11 01:32:18;;;;;;;4.60;3.78;;;18.50;99.90;;;;;;5074399;28;19916;-70
2022/08/11 01:35:19;;;;;;;6.38;3.95;;;18.40;99.90;;;;;;5074329;28;20033;-70
2022/08/11 01:37:56;;;;;;;6.85;4.03;;;18.50;99.90;;;;;;5074178;28;20041;-70
2022/08/11 01:40:25;;;;;;;5.82;4.57;;;18.40;99.90;;;;;;5074160;28;20044;-70
2022/08/11 01:46:26;;;;;;;5.72;3.97;;;18.40;99.90;;;;;;5074127;28;20052;-70
2022/08/11 01:49:08;;;;;;;8.18;4.53;;;18.30;99.90;;;;;;5057625;28;20037;-70
2022/08/11 01:51:44;;;;;;;7.45;4.53;;;18.30;99.90;;;;;;5074010;28;20045;-70
2022/08/11 01:54:26;;;;;;;8.05;4.35;;;18.30;99.90;;;;;;5073919;28;20044;-70
2022/08/11 01:57:20;;;;;;;8.93;5.00;;;18.30;99.90;;;;;;5074768;28;20040;-70
2022/08/11 02:00:01;;;;;;;6.50;5.10;;;18.30;99.90;;;;;;5073802;28;20036;-70
2022/08/11 02:02:46;;;;;;;7.20;4.43;;;18.20;99.90;;;;;;5073315;28;20106;-70
2022/08/11 02:05:49;;;;;;;6.22;4.90;;;18.20;99.90;;;;;;5057209;28;20077;-70
2022/08/11 02:08:53;;;;;;;6.82;4.57;;;18.20;99.90;;;;;;5073674;28;20072;-70
2022/08/11 02:11:32;;;;;;;5.53;4.45;;;18.10;99.90;;;;;;5073915;28;20041;-70
2022/08/11 02:14:33;;;;;;;7.78;4.45;;;18.10;99.90;;;;;;5073621;28;20043;-70
2022/08/11 02:17:18;;;;;;;7.22;4.55;;;18.10;99.90;;;;;;5073698;28;20485;-70
2022/08/11 02:23:45;;;;;;;7.40;5.22;;;18.10;99.90;;;;;;5073237;28;20547;-70
2022/08/11 02:26:23;;;;;;;5.85;5.20;;;18.00;99.90;;;;;;5044117;28;20063;-70
2022/08/11 02:29:09;;;;;;;8.70;5.25;;;18.00;99.90;;;;;;5035516;28;20533;-70
2022/08/11 02:34:43;;;;;;;7.33;5.60;;;18.00;99.90;;;;;;5035640;28;20045;-70
2022/08/11 02:37:26;;;;;;;9.77;5.65;;;18.00;99.90;;;;;;5035696;28;20280;-70
2022/08/11 02:39:57;;;;;;;6.53;5.00;;;18.00;99.90;;;;;;5035799;28;20106;-70
2022/08/11 02:42:25;;;;;;;7.55;5.32;;;17.90;99.90;;;;;;5035808;28;20149;-70
2022/08/11 02:45:06;;;;;;;7.60;5.55;;;17.90;99.90;;;;;;5035420;28;20501;-70
2022/08/11 02:51:02;;;;;;;8.98;5.65;;;17.90;99.90;;;;;;5035295;28;20037;-70
2022/08/11 02:53:48;;;;;;;7.55;5.55;;;17.90;99.90;;;;;;5035321;28;20175;-70
2022/08/11 02:56:43;;;;;;;9.27;5.53;;;17.90;99.90;;;;;;5035512;28;20076;-70
2022/08/11 03:02:30;;;;;;;8.93;5.70;;;17.80;99.90;;;;;;5051467;28;20060;-70
2022/08/11 03:05:15;;;;;;;7.10;5.97;;;17.80;99.90;;;;;;5072493;28;20409;-70
2022/08/11 03:08:06;;;;;;;8.98;6.10;;;17.80;99.90;;;;;;5055764;28;20047;-70
2022/08/11 03:17:04;;;;;;;9.07;7.00;;;17.70;99.90;;;;;;5064617;28;20044;-70
2022/08/11 03:19:38;;;;;;;;;;;17.60;99.90;;;;;;5072782;28;20045;-70
2022/08/11 03:22:11;;;;;;;9.95;6.55;;;17.60;99.90;;;;;;5072443;28;19916;-70
2022/08/11 03:24:58;;;;;;;8.65;6.45;;;17.50;99.90;;;;;;5072479;28;20390;-70
2022/08/11 03:27:38;;;;;;;7.88;7.03;;;17.70;99.90;;;;;;5071980;28;20448;-70
2022/08/11 03:30:13;;;;;;;11.68;6.90;;;17.60;99.90;;;;;;5055526;28;20169;-70
2022/08/11 03:36:12;;;;;;;10.70;6.93;;;17.60;99.90;;;;;;5072232;28;20048;-70
2022/08/11 03:39:03;;;;;;;8.18;7.20;;;17.60;99.90;;;;;;5072035;28;20040;-70
2022/08/11 03:41:44;;;;;;;8.80;7.25;;;17.60;99.90;;;;;;5072001;28;20044;-70
2022/08/11 03:44:27;;;;;;;9.10;7.32;;;17.60;99.90;;;;;;5055272;28;20089;-70
2022/08/11 03:47:26;;;;;;;10.32;7.53;;;17.50;99.90;;;;;;5071847;28;20036;-70
2022/08/11 03:50:25;;;;;;;8.48;7.45;;;17.50;99.90;;;;;;5071901;28;20044;-70
2022/08/11 03:53:15;;;;;;;9.70;8.10;;;17.50;99.90;;;;;;5055175;28;20044;-70
2022/08/11 03:56:10;;;;;;;10.95;7.70;;;17.50;99.90;;;;;;5071814;28;20048;-70
2022/08/11 03:59:03;;;;;;;10.18;8.68;;;17.50;99.90;;;;;;5071839;28;20048;-70
2022/08/11 04:01:56;;;;;;;9.93;7.47;;;17.40;99.90;;;;;;5055150;28;20086;-70
2022/08/11 04:04:42;;;;;;;;;;;17.40;99.90;;;;;;5072490;28;20047;-70
2022/08/11 04:07:45;;;;;;;10.65;8.65;;;17.30;99.90;;;;;;5057372;28;19920;-70
2022/08/11 04:10:47;;;;;;;11.02;8.30;;;17.30;99.90;;;;;;5054989;28;20044;-70
2022/08/11 04:13:50;;;;;;;10.88;8.93;;;17.30;99.90;;;;;;5071657;28;20086;-70
2022/08/11 04:16:33;;;;;;;10.20;9.20;;;17.30;99.90;;;;;;5071827;28;20044;-70
2022/08/11 04:19:17;;;;;;;9.40;8.35;;;17.30;99.90;;;;;;5054951;28;20040;-70
2022/08/11 04:22:20;;;;;;;10.80;9.13;;;17.30;99.90;;;;;;5071501;28;20032;-70
2022/08/11 04:25:09;;;;;;;9.90;7.88;;;17.30;99.90;;;;;;5055223;28;20064;-70
2022/08/11 04:27:46;;;;;;;9.90;8.90;;;17.30;99.90;;;;;;5074728;28;20405;-70
2022/08/11 04:30:26;;;;;;;11.40;8.75;;;17.30;99.90;;;;;;5075791;28;20041;-70
2022/08/11 04:32:58;;;;;;;11.73;9.60;;;17.30;99.90;;;;;;5075746;28;20040;-70
2022/08/11 04:35:37;;;;;;;11.10;9.30;;;17.30;99.90;;;;;;5075373;28;20556;-70
2022/08/11 04:38:27;;;;;;;12.38;9.07;;;17.30;99.90;;;;;;5075646;28;20067;-70
2022/08/11 04:41:15;;;;;;;10.38;8.82;;;17.30;99.90;;;;;;5058605;28;20036;-70
2022/08/11 04:44:15;;;;;;;12.35;9.32;;;17.30;99.90;;;;;;5058608;28;20480;-70
2022/08/11 04:46:50;;;;;;;12.60;9.73;;;17.30;99.90;;;;;;5075056;28;20040;-70
2022/08/11 05:02:40;;;;;;;;;;;17.30;99.90;;;;;;5075307;28;20455;-70
2022/08/11 05:05:31;;;;;;;10.32;8.98;;;17.20;99.90;;;;;;5071097;28;19939;-70
2022/08/11 05:08:27;;;;;;;11.27;9.90;;;17.30;99.90;;;;;;5075131;28;20449;-70
2022/08/11 05:11:20;;;;;;;12.40;10.02;;;17.40;99.90;;;;;;5074800;28;20047;-70
2022/08/11 05:37:09;;;;;;;9.60;8.65;;;17.70;99.90;;;;;;5074114;28;20053;-70
2022/08/11 05:56:49;;;;;;;9.25;8.35;;;18.20;99.90;;;;;;5073900;28;20123;-69
2022/08/11 05:59:17;;;;;;;10.75;8.02;;;18.30;99.90;;;;;;5074032;28;20033;-69
2022/08/11 06:01:44;;;;;;;10.95;8.10;;;18.30;99.90;;;;;;5073821;28;20066;-69
2022/08/11 06:04:22;;;;;;;9.32;7.72;;;18.40;99.90;;;;;;5073811;28;20032;-69
2022/08/11 06:06:53;;;;;;;8.77;7.40;;;18.40;99.90;;;;;;5057283;28;20119;-69
2022/08/11 06:09:22;;;;;;;8.05;7.20;;;18.50;99.90;;;;;;5073680;28;20044;-69
2022/08/11 06:11:49;;;;;;;7.05;6.35;;;18.60;99.90;;;;;;5075420;28;20052;-69
2022/08/11 06:14:15;;;;;;;8.90;6.65;;;18.70;99.90;;;;;;5073533;28;20489;-70
2022/08/11 06:16:42;;;;;;;9.10;6.93;;;18.80;99.90;;;;;;5073450;28;20119;-69
2022/08/11 06:19:08;;;;;;;12.15;6.53;;;18.90;99.90;;;;;;5073579;28;20044;-69
2022/08/11 06:21:35;;;;;;;7.68;5.47;;;18.90;99.90;;;;;;5073847;28;20044;-69
2022/08/11 06:24:09;;;;;;;8.88;5.85;;;19.00;99.90;;;;;;5073427;28;20040;-69
2022/08/11 06:26:36;;;;;;;8.10;5.72;;;19.10;99.90;;;;;;5073234;28;20451;-69
2022/08/11 06:29:02;;;;;;;7.47;5.97;;;19.20;99.90;;;;;;5073639;28;20032;-69
2022/08/11 06:31:28;;;;;;;7.80;5.32;;;19.30;99.90;;;;;;5073049;28;20043;-69
2022/08/11 06:34:09;;;;;;;7.50;5.13;;;19.30;99.90;;;;;;5073395;28;20128;-69
2022/08/11 06:36:45;;;;;;;9.02;4.50;;;19.40;99.90;;;;;;5056613;28;20408;-69
2022/08/11 06:39:33;;;;;;;9.70;4.43;;;19.50;99.90;;;;;;5073332;28;20059;-69
2022/08/11 06:42:12;;;;;;;7.97;4.70;;;19.70;99.90;;;;;;5056299;28;20047;-68
2022/08/11 06:44:41;;;;;;;5.75;4.30;;;19.70;99.90;;;;;;5072983;28;20084;-69
2022/08/11 06:47:14;;;;;;;7.32;3.80;;;19.80;99.90;;;;;;5072782;28;20049;-69
2022/08/11 06:52:35;;;;;;;12.60;3.50;;;20.00;99.90;;;;;;5072946;28;20044;-69
2022/08/11 06:55:14;;;;;;;6.53;3.80;;;20.00;99.90;;;;;;5056714;28;20115;-69
2022/08/11 07:00:33;;;;;;;7.25;3.15;;;20.20;99.90;;;;;;5072666;28;20467;-69
2022/08/11 07:03:11;;;;;;;9.48;3.30;;;20.30;99.90;;;;;;5072617;28;20055;-69
2022/08/11 07:05:36;;;;;;;9.18;3.53;;;20.50;99.90;;;;;;5072401;28;20047;-69
2022/08/11 07:17:22;;;;;;;8.88;2.13;;;20.80;99.90;;;;;;5072328;28;20049;-68
2022/08/11 07:31:24;;;;;;;5.15;1.90;;;21.50;99.90;;;;;;5072093;28;20049;-68
2022/08/11 07:33:58;;;;;;;5.07;1.98;;;21.60;99.90;;;;;;5072008;28;20040;-68
2022/08/11 07:36:26;;;;;;;3.03;1.75;;;21.70;99.90;;;;;;5055342;28;20050;-69
2022/08/11 07:38:55;;;;;;;4.38;1.38;;;21.90;99.90;;;;;;5055614;28;20063;-69
2022/08/11 07:41:22;;;;;;;4.38;1.50;;;22.00;99.90;;;;;;5072104;28;20134;-68
2022/08/11 07:43:53;;;;;;;4.43;1.58;;;22.20;99.90;;;;;;5055587;28;20493;-68
2022/08/11 07:54:39;;;;;;;2.97;1.50;;;22.80;99.90;;;;;;5072142;28;20462;-68
2022/08/11 08:19:15;;;;;;;3.55;1.30;;;24.30;99.90;;;;;;5071668;28;20072;-70
2022/08/11 08:21:42;;;;;;;6.05;1.48;;;24.40;99.90;;;;;;5054955;28;20067;-70
2022/08/11 08:24:09;;;;;;;4.38;1.20;;;24.60;99.90;;;;;;5071586;28;20032;-70
2022/08/11 08:32:06;;;;;;;2.33;0.90;;;25.10;99.90;;;;;;5071515;28;20044;-70
2022/08/11 08:34:33;;;;;;;5.05;1.08;;;25.30;97.20;;;;;;5071489;28;20501;-70
2022/08/11 08:36:59;;;;;;;2.53;1.08;;;25.40;96.60;;;;;;5071423;28;20121;-70
2022/08/11 08:39:25;;;;;;;4.40;1.10;;;25.60;95.00;;;;;;5071443;28;20037;-70
2022/08/11 08:41:58;;;;;;;5.15;0.88;;;25.80;91.40;;;;;;5071663;28;20113;-70
2022/08/11 08:44:25;;;;;;;4.53;1.10;;;26.00;84.10;;;;;;5071474;28;20086;-70
2022/08/11 08:46:55;;;;;;;5.78;1.20;;;26.10;87.50;;;;;;5071263;28;20045;-70
2022/08/11 08:49:37;;;;;;;2.50;0.82;;;26.30;87.50;;;;;;5071643;28;20040;-70
2022/08/11 08:52:05;;;;;;;3.85;1.30;;;26.50;89.10;;;;;;5071373;28;20042;-70
2022/08/11 08:54:38;;;;;;;5.60;1.17;;;26.60;87.00;;;;;;5071580;28;20067;-70
2022/08/11 08:57:06;;;;;;;4.38;0.95;;;26.80;80.10;;;;;;5071262;28;20419;-71
2022/08/11 08:59:40;;;;;;;3.92;1.08;;;27.00;78.30;;;;;;5071230;28;20467;-70
2022/08/11 09:02:11;;;;;;;3.70;0.93;;;27.20;78.20;;;;;;5071249;28;20041;-70
2022/08/11 09:04:39;;;;;;;5.87;1.33;;;27.40;72.50;;;;;;5071560;28;20049;-70
2022/08/11 09:07:17;;;;;;;3.10;1.30;;;27.40;70.50;;;;;;5054386;28;20036;-70
2022/08/11 09:09:46;;;;;;;3.42;1.40;;;27.50;68.70;;;;;;5071210;28;20047;-70
2022/08/11 09:12:11;;;;;;;4.70;1.23;;;27.60;67.00;;;;;;5072122;28;20044;-69
2022/08/11 09:17:26;;;;;;;2.33;1.30;;;27.80;63.50;;;;;;5074567;28;20458;-70
2022/08/11 09:20:05;;;;;;;3.90;1.23;;;28.00;62.10;;;;;;5074604;28;20505;-70
2022/08/11 09:28:06;;;;;;;2.17;1.00;;;28.40;57.30;;;;;;5075127;28;20060;-70
2022/08/11 09:30:32;;;;;;;4.43;1.30;;;28.60;58.80;;;;;;5074420;28;20101;-70
2022/08/11 09:33:01;;;;;;;2.97;1.50;;;28.70;57.40;;;;;;5074405;28;20040;-70
2022/08/11 09:35:28;;;;;;;3.85;1.45;;;28.80;57.80;;;;;;5074354;28;20042;-70
2022/08/11 09:40:43;;;;;;;2.72;1.60;;;29.10;55.70;;;;;;5074300;28;20048;-70
2022/08/11 09:45:58;;;;;;;6.57;1.27;;;29.40;54.30;;;;;;5074012;28;20052;-70
2022/08/11 09:48:26;;;;;;;6.65;1.30;;;29.60;54.30;;;;;;5074326;28;20052;-70
2022/08/11 09:50:58;;;;;;;2.92;1.48;;;29.70;53.20;;;;;;5074295;28;20459;-70
2022/08/11 09:53:26;;;;;;;3.95;1.13;;;29.70;52.60;;;;;;5074298;28;20037;-70
2022/08/11 09:55:53;;;;;;;4.60;1.15;;;29.90;52.40;;;;;;5074148;28;20052;-70
2022/08/11 09:58:20;;;;;;;3.78;1.38;;;30.10;50.20;;;;;;5074148;28;20063;-70
2022/08/11 10:00:48;;;;;;;6.28;1.30;;;30.20;50.60;;;;;;5073873;28;20044;-70
2022/08/11 10:03:24;;;;;;;5.22;1.23;;;30.40;51.70;;;;;;5057186;28;20040;-70
2022/08/11 10:08:47;;;;;;;4.18;1.10;;;30.50;49.20;;;;;;5073809;28;20076;-70
2022/08/11 10:11:17;;;;;;;5.28;1.20;;;30.70;49.70;;;;;;5073910;28;20049;-70
2022/08/11 10:16:33;;;;;;;3.50;1.30;;;30.90;48.70;;;;;;5073731;28;20048;-70
2022/08/11 10:19:02;;;;;;;5.07;1.23;;;31.00;48.10;;;;;;5074061;28;20072;-70
2022/08/11 10:21:39;;;;;;;5.10;1.23;;;31.00;47.70;;;;;;5073474;28;20044;-70
2022/08/11 10:26:53;;;;;;;5.90;1.70;;;31.20;48.90;;;;;;5073381;28;20040;-70
2022/08/11 10:35:14;;;;;;;6.13;1.25;;;31.60;45.00;;;;;;5073214;28;20044;-70
2022/08/11 10:37:43;;;;;;;3.35;1.23;;;31.70;45.80;;;;;;5056422;28;20048;-70
2022/08/11 10:40:16;;;;;;;5.00;1.13;;;31.90;45.20;;;;;;5073119;28;20162;-70
2022/08/11 10:48:22;;;;;;;3.10;0.90;;;32.10;44.80;;;;;;5072915;28;20053;-70
2022/08/11 10:59:07;;;;;;;4.20;1.00;;;32.50;43.40;;;;;;5072710;28;20080;-70
2022/08/11 11:01:38;;;;;;;3.83;1.00;;;32.50;43.30;;;;;;5072628;28;20040;-70
2022/08/11 11:04:15;;;;;;;4.95;0.85;;;32.70;42.60;;;;;;5072652;28;20424;-70
2022/08/11 11:06:54;;;;;;;3.53;0.85;;;32.80;42.10;;;;;;5055829;28;20040;-70
2022/08/11 11:09:49;;;;;;;4.82;1.00;;;32.80;40.10;;;;;;5072548;28;20040;-70
2022/08/11 11:18:11;;;;;;;2.22;0.82;;;33.20;42.30;;;;;;5072460;28;20048;-70
2022/08/11 11:21:13;;;;;;;1.90;1.00;;;33.30;42.10;;;;;;5072271;28;20398;-70
2022/08/11 11:23:46;;;;;;;3.65;0.88;;;33.50;42.20;;;;;;5072498;28;20148;-70
2022/08/11 11:26:25;;;;;;;4.93;1.08;;;33.50;41.90;;;;;;5072143;28;20061;-70
2022/08/11 11:29:27;;;;;;;5.95;1.00;;;33.60;42.20;;;;;;5072227;28;20081;-70
2022/08/11 11:32:12;;;;;;;;;;;33.60;41.20;;;;;;5055919;28;20497;-70
2022/08/11 11:34:50;;;;;;;2.40;0.90;;;33.80;41.30;;;;;;5072090;28;20384;-70
2022/08/11 11:37:17;;;;;;;1.48;0.80;;;33.90;41.00;;;;;;5072088;28;20051;-70
2022/08/11 11:39:44;;;;;;;3.33;0.80;;;33.90;39.10;;;;;;5072058;28;20062;-70
2022/08/11 11:42:10;;;;;;;2.20;0.80;;;34.00;39.10;;;;;;5072285;28;20398;-70
2022/08/11 11:44:42;;;;;;;2.45;0.80;;;34.00;38.20;;;;;;5071975;28;20389;-70
2022/08/11 11:47:11;;;;;;;4.63;1.00;;;34.00;38.50;;;;;;5055321;28;20460;-70
2022/08/11 11:49:39;;;;;;;4.57;0.70;;;34.00;38.20;;;;;;5071920;28;20417;-70
2022/08/11 11:52:07;;;;;;;4.43;0.70;;;34.10;39.30;;;;;;5072130;28;20063;-70
2022/08/11 11:54:35;;;;;;;2.53;0.90;;;34.20;39.40;;;;;;5071874;28;20044;-70
2022/08/11 12:02:56;;;;;;;3.22;0.85;;;34.30;38.30;;;;;;5034585;28;20045;-70
2022/08/11 12:05:22;;;;;;;3.90;1.10;;;34.40;38.60;;;;;;5040155;28;20126;-70
2022/08/11 12:10:33;;;;;;;3.05;0.75;;;34.50;39.00;;;;;;5071792;28;20541;-70
2022/08/11 12:15:49;;;;;;;2.55;0.70;;;34.60;37.00;;;;;;5071663;28;20048;-70
2022/08/11 12:18:15;;;;;;;2.70;0.70;;;34.70;36.70;;;;;;5072231;28;20510;-70
2022/08/11 12:20:43;;;;;;;4.53;0.90;;;34.80;37.70;;;;;;5071625;28;20170;-70
2022/08/11 12:28:38;;;;;;;16.50;1.30;;;35.00;38.40;;;;;;5071629;28;20045;-70
2022/08/11 12:31:05;;;;;;;1.98;0.85;;;35.10;37.80;;;;;;5054833;28;20062;-70
2022/08/11 12:33:31;;;;;;;5.57;0.90;;;35.20;37.20;;;;;;5071802;28;20036;-70
2022/08/11 12:35:58;;;;;;;3.67;0.73;;;35.20;37.00;;;;;;5071434;28;20408;-70
2022/08/11 12:38:25;;;;;;;5.07;0.77;;;35.20;36.50;;;;;;5071462;28;20098;-70
2022/08/11 12:46:30;;;;;;;3.65;0.82;;;35.00;37.20;;;;;;5071319;28;20045;-70
2022/08/11 12:51:57;;;;;;;3.70;1.00;;;35.20;37.70;;;;;;5075150;28;20541;-70
2022/08/11 12:54:35;;;;;;;7.20;0.70;;;35.30;36.60;;;;;;5075152;28;20044;-70
2022/08/11 13:05:32;;;;;;;8.32;1.10;;;35.60;36.60;;;;;;5074851;28;20485;-70
2022/08/11 13:08:00;;;;;;;4.07;0.80;;;35.60;36.80;;;;;;5058125;28;20036;-70
2022/08/11 13:13:13;;;;;;;2.30;0.90;;;35.60;36.50;;;;;;5074821;28;20044;-70
2022/08/11 13:15:39;;;;;;;5.20;0.75;;;35.60;36.80;;;;;;5074655;28;20094;-70
2022/08/11 13:18:08;;;;;;;4.78;0.90;;;35.70;36.10;;;;;;5074649;28;20489;-70
2022/08/11 13:20:34;;;;;;;8.60;0.98;;;35.60;35.90;;;;;;5074620;28;20036;-70
2022/08/11 13:23:01;;;;;;;3.65;0.73;;;35.50;36.10;;;;;;5074490;28;20043;-70
2022/08/11 13:25:30;;;;;;;6.13;1.00;;;35.50;36.70;;;;;;5074810;28;20076;-70
2022/08/11 13:27:58;;;;;;;3.15;0.82;;;35.40;36.30;;;;;;5074405;28;20040;-71
2022/08/11 13:33:11;;;;;;;1.77;0.80;;;35.50;36.00;;;;;;5074471;28;20040;-70
2022/08/11 13:35:38;;;;;;;2.75;0.90;;;35.60;37.40;;;;;;5074546;28;20044;-70
2022/08/11 13:38:04;;;;;;;4.88;1.08;;;35.70;37.70;;;;;;5074327;28;20513;-70
2022/08/11 13:40:31;;;;;;;4.43;1.05;;;35.70;36.80;;;;;;5074298;28;20041;-70
2022/08/11 13:42:58;;;;;;;1.52;0.80;;;35.60;37.20;;;;;;5074254;28;20123;-70
2022/08/11 13:45:25;;;;;;;3.17;1.00;;;35.60;37.40;;;;;;5074206;28;20075;-70
2022/08/11 13:47:55;;;;;;;1.33;0.70;;;35.60;36.90;;;;;;5074057;28;20045;-70
2022/08/11 13:51:29;;;;;;;5.70;1.13;;;35.70;36.60;;;;;;5074088;28;20048;-70
2022/08/11 13:53:11;;;;;;;5.82;0.93;;;35.60;36.20;;;;;;5074183;28;20041;-70
2022/08/11 13:55:40;;;;;;;3.08;0.90;;;35.60;36.50;;;;;;5073882;28;20048;-70
2022/08/11 13:58:11;;;;;;;4.20;1.25;;;35.50;36.70;;;;;;5073399;28;20513;-70
2022/08/11 14:00:38;;;;;;;3.33;0.80;;;35.50;36.20;;;;;;5073719;28;20043;-70
2022/08/11 14:03:10;;;;;;;1.73;0.70;;;35.40;36.50;;;;;;5073876;28;20294;-70
2022/08/11 14:05:45;;;;;;;2.65;1.00;;;35.40;36.40;;;;;;5075005;28;20115;-70
2022/08/11 14:08:14;;;;;;;3.63;1.00;;;35.40;35.80;;;;;;5057096;28;20052;-70
2022/08/11 14:10:40;;;;;;;6.45;0.93;;;35.30;36.10;;;;;;5073986;28;20073;-70
2022/08/11 14:16:04;;;;;;;8.27;0.90;;;35.40;36.50;;;;;;5073571;28;20048;-70
2022/08/11 14:18:31;;;;;;;3.03;0.80;;;35.30;36.30;;;;;;5073642;28;20411;-70
2022/08/11 14:23:53;;;;;;;3.10;1.02;;;35.40;36.40;;;;;;5073637;28;20032;-70
2022/08/11 14:26:27;;;;;;;2.17;1.00;;;35.30;36.00;;;;;;5073341;28;20115;-70
2022/08/11 14:29:06;;;;;;;3.20;0.63;;;35.20;36.50;;;;;;5073390;28;20044;-70
2022/08/11 14:31:35;;;;;;;2.92;0.80;;;35.20;36.40;;;;;;5073335;28;20036;-70
2022/08/11 14:34:04;;;;;;;1.50;0.60;;;35.20;36.40;;;;;;5073514;28;20040;-70
2022/08/11 14:36:38;;;;;;;3.13;0.80;;;35.20;36.40;;;;;;5073129;28;20051;-70
2022/08/11 14:39:18;;;;;;;2.15;0.80;;;35.10;35.40;;;;;;5073140;28;20063;-70
2022/08/11 14:47:42;;;;;;;4.67;0.70;;;35.10;35.90;;;;;;5038066;28;20045;-73
2022/08/11 14:50:17;;;;;;;2.92;0.70;;;35.00;36.70;;;;;;5056530;28;20036;-73
2022/08/11 14:53:10;;;;;;;1.95;0.77;;;35.00;36.00;;;;;;5072870;28;20530;-74
2022/08/11 14:58:26;;;;;;;1.48;0.80;;;34.80;36.20;;;;;;5073036;28;20044;-73
2022/08/11 15:00:55;;;;;;;1.40;0.55;;;34.70;36.10;;;;;;5072612;28;20546;-73
2022/08/11 15:03:22;;;;;;;2.20;0.50;;;34.70;36.90;;;;;;5055856;28;20036;-73
2022/08/11 15:05:55;;;;;;;5.00;0.90;;;34.60;36.70;;;;;;5072602;28;20082;-73
2022/08/11 15:13:59;;;;;;;5.20;0.80;;;34.40;36.90;;;;;;5072746;28;20044;-74
2022/08/11 15:19:12;;;;;;;3.13;0.70;;;34.30;37.00;;;;;;5072418;28;20048;-73
2022/08/11 15:24:23;;;;;;;3.25;0.77;;;34.30;37.60;;;;;;5072595;28;20048;-74
2022/08/11 15:37:57;;;;;;;3.88;0.77;;;34.20;38.10;;;;;;5072002;28;20472;-73
2022/08/11 15:46:13;;;;;;;2.53;0.90;;;33.90;37.70;;;;;;5071851;28;20049;-73
2022/08/11 15:49:03;;;;;;;5.18;0.77;;;33.90;37.80;;;;;;5072236;28;20041;-73
2022/08/11 15:51:36;;;;;;;5.38;0.95;;;33.90;38.20;;;;;;5071963;28;20045;-73
2022/08/11 15:54:08;;;;;;;5.53;0.80;;;33.80;38.40;;;;;;5071837;28;20040;-73
2022/08/11 15:56:34;;;;;;;;;;;33.80;38.20;;;;;;5072532;28;20052;-73
2022/08/11 16:04:36;;;;;;;5.32;0.70;;;33.30;38.30;;;;;;5071796;28;20098;-73
2022/08/11 16:07:14;;;;;;;4.03;1.00;;;33.30;39.80;;;;;;5071576;28;20436;-73
2022/08/11 16:09:50;;;;;;;4.68;1.02;;;33.30;40.20;;;;;;5072021;28;20036;-74
2022/08/11 16:12:20;;;;;;;4.55;0.98;;;33.20;40.60;;;;;;5071669;28;20039;-74
2022/08/11 16:17:41;;;;;;;8.95;0.90;;;33.10;40.80;;;;;;5071700;28;20045;-73
2022/08/11 16:20:08;;;;;;;5.05;0.90;;;32.90;40.90;;;;;;5071692;28;20041;-72
2022/08/11 16:22:45;;;;;;;5.43;0.82;;;32.80;41.10;;;;;;5056752;28;20086;-73
2022/08/11 16:25:16;;;;;;;4.68;0.70;;;32.70;40.90;;;;;;5059090;28;20048;-73
2022/08/11 16:27:46;;;;;;;2.20;0.80;;;32.60;41.30;;;;;;5075672;28;20043;-72
2022/08/11 16:30:13;;;;;;;5.38;0.90;;;32.60;42.10;;;;;;5075616;28;20044;-73
2022/08/11 16:32:42;;;;;;;6.10;0.95;;;32.60;42.20;;;;;;5075907;28;20162;-73
2022/08/11 16:40:50;;;;;;;4.68;0.80;;;32.40;42.30;;;;;;5075580;28;20040;-72
2022/08/11 16:48:53;;;;;;;4.85;0.68;;;32.10;43.40;;;;;;5075280;28;20076;-73
2022/08/11 16:51:20;;;;;;;4.45;0.90;;;32.00;43.80;;;;;;5058736;28;20041;-72
2022/08/11 16:53:47;;;;;;;5.35;0.70;;;32.00;44.00;;;;;;5075384;28;20123;-73
2022/08/11 16:56:23;;;;;;;3.45;1.00;;;31.90;44.10;;;;;;5058541;28;20048;-73
2022/08/11 16:59:13;;;;;;;2.95;0.95;;;31.90;44.40;;;;;;5075315;28;20040;-74
2022/08/11 17:01:52;;;;;;;4.55;0.95;;;31.80;44.50;;;;;;5058301;28;20394;-75
2022/08/11 17:13:09;;;;;;;3.25;0.90;;;31.40;45.70;;;;;;5075047;28;20048;-75
2022/08/11 17:16:08;;;;;;;5.22;1.20;;;31.30;45.80;;;;;;5057887;28;20462;-74
2022/08/11 17:18:48;;;;;;;7.25;1.10;;;31.20;46.00;;;;;;5074605;28;20033;-74
2022/08/11 17:21:19;;;;;;;5.38;1.05;;;31.20;46.40;;;;;;5074579;28;20409;-75
2022/08/11 17:23:53;;;;;;;3.25;0.88;;;31.10;46.60;;;;;;5074501;28;20048;-75
2022/08/11 17:26:26;;;;;;;2.25;0.98;;;31.00;46.60;;;;;;5074662;28;20041;-74
2022/08/11 17:28:56;;;;;;;3.38;1.00;;;30.90;46.50;;;;;;5074475;28;20032;-74
2022/08/11 17:36:54;;;;;;;6.20;1.15;;;30.60;48.40;;;;;;5075879;28;20417;-74
2022/08/11 17:39:27;;;;;;;3.33;0.98;;;30.50;47.80;;;;;;5074296;28;20051;-74
2022/08/11 17:50:10;;;;;;;3.35;1.10;;;30.20;48.70;;;;;;5074121;28;20040;-73
2022/08/11 18:00:53;;;;;;;4.60;1.00;;;29.90;50.20;;;;;;5073991;28;20044;-72
2022/08/11 18:03:38;;;;;;;5.75;1.45;;;29.80;50.70;;;;;;5073859;28;20420;-72
2022/08/11 18:06:06;;;;;;;4.80;0.85;;;29.70;50.70;;;;;;5073996;28;20056;-72
